createdAt,value
2023-04-04T00:01:31.026Z,53.72
2023-04-04T00:04:01.962Z,52.98
2023-04-04T00:06:31.017Z,54.05
2023-04-04T00:09:00.290Z,53.47
2023-04-04T00:11:29.313Z,53.15
2023-04-04T00:13:58.340Z,53.26
2023-04-04T00:16:27.517Z,53.92
2023-04-04T00:18:56.499Z,53.33
2023-04-04T00:21:27.582Z,52.44
2023-04-04T00:23:57.134Z,53.62
2023-04-04T00:26:26.361Z,54.35
2023-04-04T00:28:56.265Z,52.49
2023-04-04T00:31:25.358Z,53.40
2023-04-04T00:33:54.378Z,53.95
2023-04-04T00:36:23.464Z,52.87
2023-04-04T00:38:53.810Z,52.66
2023-04-04T00:41:22.840Z,52.85
2023-04-04T00:43:51.841Z,53.97
2023-04-04T00:46:21.850Z,53.81
2023-04-04T00:48:51.598Z,54.82
2023-04-04T00:51:20.730Z,54.61
2023-04-04T00:53:51.871Z,55.12
2023-04-04T00:56:23.541Z,55.55
2023-04-04T00:58:53.000Z,55.20
2023-04-04T01:01:25.772Z,55.87
2023-04-04T01:03:55.002Z,55.88
2023-04-04T01:06:24.022Z,55.58
2023-04-04T01:08:55.312Z,56.23
2023-04-04T01:11:27.154Z,55.59
2023-04-04T01:13:56.561Z,56.35
2023-04-04T01:16:25.982Z,56.03
2023-04-04T01:18:56.235Z,57.01
2023-04-04T01:21:26.516Z,56.24
2023-04-04T01:24:01.915Z,56.50
2023-04-04T01:26:42.572Z,56.58
2023-04-04T01:29:12.389Z,57.17
2023-04-04T01:31:49.525Z,56.80
2023-04-04T01:34:25.993Z,57.44
2023-04-04T01:37:04.243Z,58.15
2023-04-04T01:39:43.158Z,57.66
2023-04-04T01:42:16.964Z,57.88
2023-04-04T01:44:48.898Z,56.95
2023-04-04T01:47:18.166Z,56.72
2023-04-04T01:49:47.331Z,55.81
2023-04-04T01:52:17.231Z,55.69
2023-04-04T01:54:46.196Z,54.76
2023-04-04T01:57:16.834Z,56.06
2023-04-04T01:59:46.417Z,54.50
2023-04-04T02:02:15.694Z,54.07
2023-04-04T02:04:44.751Z,53.03
2023-04-04T02:07:14.275Z,53.96
2023-04-04T02:09:43.545Z,53.80
2023-04-04T02:12:12.781Z,51.66
2023-04-04T02:14:43.218Z,52.93
2023-04-04T02:17:12.506Z,53.91
2023-04-04T02:19:41.861Z,53.18
2023-04-04T02:22:10.901Z,53.18
2023-04-04T02:24:40.021Z,53.20
2023-04-04T02:27:10.462Z,53.75
2023-04-04T02:29:39.493Z,52.68
2023-04-04T02:32:09.850Z,53.08
2023-04-04T02:34:38.935Z,52.47
2023-04-04T02:37:08.917Z,53.36
2023-04-04T02:39:37.920Z,53.63
2023-04-04T02:42:07.289Z,53.90
2023-04-04T02:44:36.400Z,55.49
2023-04-04T02:47:07.873Z,54.77
2023-04-04T02:49:38.367Z,54.89
2023-04-04T02:52:08.365Z,55.32
2023-04-04T02:54:41.725Z,54.71
2023-04-04T02:57:12.713Z,54.64
2023-04-04T02:59:41.893Z,54.05
2023-04-04T03:02:11.023Z,54.74
2023-04-04T03:04:41.491Z,55.82
2023-04-04T03:07:11.372Z,55.64
2023-04-04T03:09:40.515Z,54.69
2023-04-04T03:12:09.611Z,55.53
2023-04-04T03:14:38.666Z,53.72
2023-04-04T03:17:09.435Z,52.81
2023-04-04T03:19:38.679Z,53.54
2023-04-04T03:22:09.618Z,53.87
2023-04-04T03:24:39.199Z,55.73
2023-04-04T03:27:08.992Z,55.69
2023-04-04T03:29:38.095Z,54.20
2023-04-04T03:32:07.411Z,56.48
2023-04-04T03:34:36.709Z,56.58
2023-04-04T03:37:05.992Z,57.36
2023-04-04T03:39:36.446Z,58.89
2023-04-04T03:42:06.146Z,58.25
2023-04-04T03:44:36.635Z,59.05
2023-04-04T03:47:06.531Z,61.23
2023-04-04T03:49:36.637Z,65.16
2023-04-04T03:52:06.841Z,67.42
2023-04-04T03:54:37.242Z,69.11
2023-04-04T03:57:07.655Z,72.61
2023-04-04T03:59:37.338Z,74.49
2023-04-04T04:02:06.959Z,74.70
2023-04-04T04:04:36.222Z,76.89
2023-04-04T04:07:05.265Z,79.05
2023-04-04T04:09:34.289Z,82.16
2023-04-04T04:12:04.996Z,85.71
2023-04-04T04:14:34.066Z,87.58
2023-04-04T04:17:04.719Z,88.10
2023-04-04T04:19:33.736Z,86.51
2023-04-04T04:22:02.760Z,88.32
2023-04-04T04:24:32.099Z,90.20
2023-04-04T04:27:02.091Z,90.23
2023-04-04T04:29:32.969Z,87.49
2023-04-04T04:32:02.362Z,89.04
2023-04-04T04:34:36.253Z,90.03
2023-04-04T04:37:06.250Z,90.95
2023-04-04T04:39:44.450Z,90.49
2023-04-04T04:42:26.195Z,90.74
2023-04-04T04:45:00.606Z,90.86
2023-04-04T04:47:32.788Z,90.47
2023-04-04T04:50:05.550Z,88.52
2023-04-04T04:52:41.587Z,87.74
2023-04-04T04:55:11.595Z,83.54
2023-04-04T04:57:47.624Z,88.03
2023-04-04T05:00:24.532Z,88.61
2023-04-04T05:02:56.807Z,91.58
2023-04-04T05:05:37.981Z,86.79
2023-04-04T05:08:11.545Z,83.10
2023-04-04T05:10:48.569Z,79.49
2023-04-04T05:13:18.571Z,77.19
2023-04-04T05:15:50.576Z,74.35
2023-04-04T05:18:19.872Z,71.11
2023-04-04T05:20:54.067Z,69.45
2023-04-04T05:23:25.298Z,68.71
2023-04-04T05:25:55.167Z,66.93
2023-04-04T05:28:26.723Z,65.57
2023-04-04T05:31:01.335Z,64.05
2023-04-04T05:33:33.154Z,62.92
2023-04-04T05:36:14.863Z,62.34
2023-04-04T05:38:50.066Z,61.12
2023-04-04T05:41:22.142Z,61.23
2023-04-04T05:43:53.111Z,61.44
2023-04-04T05:46:27.216Z,61.56
2023-04-04T05:48:56.976Z,59.33
2023-04-04T05:51:27.077Z,59.52
2023-04-04T05:54:09.019Z,58.67
2023-04-04T05:56:39.874Z,59.14
2023-04-04T05:59:16.589Z,55.83
2023-04-04T06:01:57.629Z,56.94
2023-04-04T06:04:27.056Z,56.27
2023-04-04T06:06:58.108Z,54.05
2023-04-04T06:09:27.883Z,56.37
2023-04-04T06:11:57.090Z,56.58
2023-04-04T06:14:26.182Z,52.99
2023-04-04T06:16:56.707Z,54.75
2023-04-04T06:19:26.091Z,52.89
2023-04-04T06:21:55.379Z,53.50
2023-04-04T06:24:24.983Z,50.63
2023-04-04T06:26:54.135Z,51.98
2023-04-04T06:29:26.835Z,50.06
2023-04-04T06:31:59.877Z,49.95
2023-04-04T06:34:41.575Z,48.98
2023-04-04T06:37:11.794Z,48.27
2023-04-04T06:39:49.834Z,49.98
2023-04-04T06:42:26.053Z,48.67
2023-04-04T06:44:55.903Z,48.37
2023-04-04T06:47:26.333Z,48.52
2023-04-04T06:49:56.066Z,47.87
2023-04-04T06:52:26.724Z,47.54
2023-04-04T06:54:56.602Z,48.19
2023-04-04T06:57:25.758Z,48.06
2023-04-04T06:59:54.788Z,47.39
2023-04-04T07:02:25.222Z,48.22
2023-04-04T07:04:54.317Z,48.02
2023-04-04T07:07:23.374Z,46.43
2023-04-04T07:09:52.492Z,46.67
2023-04-04T07:12:21.873Z,46.18
2023-04-04T07:14:51.688Z,44.85
2023-04-04T07:17:24.623Z,45.55
2023-04-04T07:19:55.601Z,46.67
2023-04-04T07:22:24.741Z,46.07
2023-04-04T07:24:54.708Z,45.61
2023-04-04T07:27:23.721Z,45.99
2023-04-04T07:29:52.979Z,44.44
2023-04-04T07:32:24.484Z,44.91
2023-04-04T07:34:55.504Z,45.14
2023-04-04T07:37:26.609Z,43.92
2023-04-04T07:39:55.860Z,45.89
2023-04-04T07:42:25.386Z,45.38
2023-04-04T07:44:54.566Z,44.83
2023-04-04T07:47:23.823Z,42.97
2023-04-04T07:49:54.302Z,44.26
2023-04-04T07:52:23.293Z,44.45
2023-04-04T07:54:53.293Z,43.92
2023-04-04T07:57:22.357Z,43.92
2023-04-04T07:59:51.333Z,43.55
2023-04-04T08:02:20.635Z,42.41
2023-04-04T08:04:49.864Z,44.01
2023-04-04T08:07:20.397Z,43.61
2023-04-04T08:09:49.403Z,42.39
2023-04-04T08:12:18.541Z,42.30
2023-04-04T08:14:47.599Z,41.03
2023-04-04T08:17:19.127Z,42.01
2023-04-04T08:19:48.224Z,41.37
2023-04-04T08:22:17.217Z,42.39
2023-04-04T08:24:47.700Z,39.56
2023-04-04T08:27:17.078Z,40.22
2023-04-04T08:29:46.958Z,40.35
2023-04-04T08:32:16.213Z,42.33
2023-04-04T08:34:45.383Z,40.90
2023-04-04T08:37:14.773Z,40.19
2023-04-04T08:39:44.122Z,40.51
2023-04-04T08:42:17.138Z,40.44
2023-04-04T08:44:51.183Z,40.36
2023-04-04T08:47:24.575Z,39.83
2023-04-04T08:49:56.722Z,42.80
2023-04-04T08:52:29.620Z,39.38
2023-04-04T08:55:00.014Z,40.44
2023-04-04T08:57:30.868Z,40.24
2023-04-04T09:00:00.418Z,39.76
2023-04-04T09:02:35.553Z,39.67
2023-04-04T09:05:07.266Z,38.77
2023-04-04T09:07:39.195Z,40.04
2023-04-04T09:10:12.187Z,40.67
2023-04-04T09:12:47.559Z,39.40
2023-04-04T09:15:17.379Z,37.97
2023-04-04T09:17:46.504Z,39.05
2023-04-04T09:20:39.056Z,38.77
2023-04-04T09:23:11.023Z,38.38
2023-04-04T09:25:56.308Z,38.26
2023-04-04T09:28:34.854Z,37.80
2023-04-04T09:31:07.862Z,38.27
2023-04-04T09:33:37.193Z,36.83
2023-04-04T09:36:11.231Z,39.04
2023-04-04T09:38:43.207Z,37.90
2023-04-04T09:41:14.992Z,37.32
2023-04-04T09:43:47.859Z,36.98
2023-04-04T09:46:21.844Z,38.41
2023-04-04T09:48:52.023Z,35.94
2023-04-04T09:51:21.059Z,35.39
2023-04-04T09:53:50.664Z,35.02
2023-04-04T09:56:21.139Z,36.33
2023-04-04T09:59:02.997Z,36.36
2023-04-04T10:01:34.616Z,36.74
2023-04-04T10:04:06.167Z,35.45
2023-04-04T10:06:38.555Z,34.51
2023-04-04T10:09:09.502Z,34.42
2023-04-04T10:11:38.947Z,35.07
2023-04-04T10:14:10.970Z,35.46
2023-04-04T10:16:46.735Z,34.90
2023-04-04T10:19:19.421Z,33.88
2023-04-04T10:21:49.474Z,33.30
2023-04-04T10:24:19.124Z,35.53
2023-04-04T10:26:48.159Z,35.10
2023-04-04T10:29:18.668Z,35.78
2023-04-04T10:31:51.187Z,34.68
2023-04-04T10:34:30.110Z,34.28
2023-04-04T10:37:10.711Z,34.89
2023-04-04T10:39:51.389Z,35.11
2023-04-04T10:42:21.006Z,32.50
2023-04-04T10:44:52.650Z,33.96
2023-04-04T10:47:23.943Z,31.72
2023-04-04T10:49:53.989Z,33.32
2023-04-04T10:52:25.688Z,34.31
2023-04-04T10:54:58.859Z,34.12
2023-04-04T10:57:29.454Z,32.43
2023-04-04T11:00:05.147Z,33.37
2023-04-04T11:02:57.271Z,33.14
2023-04-04T11:05:31.840Z,30.08
2023-04-04T11:08:08.678Z,30.54
2023-04-04T11:10:39.845Z,32.38
2023-04-04T11:13:14.330Z,29.15
2023-04-04T11:15:55.851Z,27.42
2023-04-04T11:18:47.183Z,27.97
2023-04-04T11:21:18.787Z,29.26
2023-04-04T11:24:17.060Z,28.91
2023-04-04T11:26:47.288Z,28.88
2023-04-04T11:29:43.239Z,30.81
2023-04-04T11:32:52.961Z,28.35
2023-04-04T11:35:25.558Z,26.71
2023-04-04T11:38:02.495Z,23.59
2023-04-04T11:40:41.408Z,24.60
2023-04-04T11:43:12.541Z,24.28
2023-04-04T11:45:48.084Z,24.57
2023-04-04T11:48:21.082Z,23.28
2023-04-04T11:50:53.445Z,22.26
2023-04-04T11:53:22.942Z,27.19
2023-04-04T11:55:53.069Z,25.20
2023-04-04T11:58:24.231Z,25.42
2023-04-04T12:00:53.367Z,21.56
2023-04-04T12:05:53.237Z,20.81
2023-04-04T12:08:24.042Z,21.73
2023-04-04T12:10:53.259Z,21.04
2023-04-04T12:13:22.289Z,23.38
2023-04-04T12:15:51.593Z,20.84
2023-04-04T12:18:26.354Z,22.44
2023-04-04T12:20:57.725Z,22.85
2023-04-04T12:23:27.751Z,21.76
2023-04-04T12:25:58.686Z,22.78
2023-04-04T12:28:28.442Z,22.64
2023-04-04T12:30:57.934Z,21.44
2023-04-04T12:33:28.434Z,21.83
2023-04-04T12:35:57.524Z,23.62
2023-04-04T12:38:26.878Z,21.15
2023-04-04T12:40:55.940Z,22.16
2023-04-04T12:43:29.925Z,20.34
2023-04-04T12:45:59.523Z,21.19
2023-04-04T12:48:31.799Z,19.24
2023-04-04T12:51:01.807Z,18.84
2023-04-04T12:53:33.161Z,18.14
2023-04-04T12:56:04.696Z,17.84
2023-04-04T12:58:36.212Z,18.30
2023-04-04T13:01:07.111Z,18.67
2023-04-04T13:03:38.041Z,18.06
2023-04-04T13:06:14.323Z,17.40
2023-04-04T13:08:54.140Z,17.48
2023-04-04T13:11:23.561Z,17.47
2023-04-04T13:14:02.725Z,19.02
2023-04-04T13:16:34.415Z,19.07
2023-04-04T13:19:06.198Z,17.80
2023-04-04T13:21:36.679Z,18.35
2023-04-04T13:24:06.328Z,18.75
2023-04-04T13:26:36.041Z,15.61
2023-04-04T13:29:05.034Z,16.61
2023-04-04T13:31:34.065Z,16.57
2023-04-04T13:34:04.457Z,16.47
2023-04-04T13:36:34.678Z,18.52
2023-04-04T13:39:03.722Z,18.49
2023-04-04T13:41:32.739Z,18.04
2023-04-04T13:44:03.952Z,17.38
2023-04-04T13:46:33.006Z,17.88
2023-04-04T13:49:03.679Z,17.22
2023-04-04T13:51:34.131Z,16.89
2023-04-04T13:54:03.206Z,17.23
2023-04-04T13:56:32.264Z,16.21
2023-04-04T13:59:01.372Z,17.17
2023-04-04T14:01:30.759Z,16.04
2023-04-04T14:04:01.942Z,17.05
2023-04-04T14:06:35.827Z,17.34
2023-04-04T14:09:04.973Z,16.60
2023-04-04T14:11:35.686Z,17.13
2023-04-04T14:14:04.661Z,17.23
2023-04-04T14:16:33.816Z,17.54
2023-04-04T14:19:02.950Z,17.26
2023-04-04T14:21:33.612Z,18.14
2023-04-04T14:24:02.768Z,19.47
2023-04-04T14:26:33.308Z,19.93
2023-04-04T14:29:03.420Z,21.32
2023-04-04T14:31:34.909Z,19.93
2023-04-04T14:34:05.323Z,17.33
2023-04-04T14:36:36.571Z,17.03
2023-04-04T14:39:05.821Z,17.32
2023-04-04T14:41:34.908Z,17.34
2023-04-04T14:44:03.955Z,16.33
2023-04-04T14:46:34.076Z,16.46
2023-04-04T14:49:06.337Z,17.31
2023-04-04T14:51:36.860Z,17.33
2023-04-04T14:54:06.130Z,17.63
2023-04-04T14:56:35.215Z,18.21
2023-04-04T14:59:05.749Z,19.79
2023-04-04T15:01:34.832Z,18.56
2023-04-04T15:04:03.980Z,18.88
2023-04-04T15:06:36.224Z,18.46
2023-04-04T15:09:08.094Z,18.41
2023-04-04T15:11:37.250Z,18.38
2023-04-04T15:14:06.825Z,17.19
2023-04-04T15:16:36.165Z,17.91
2023-04-04T15:19:05.361Z,17.18
2023-04-04T15:21:34.422Z,17.89
2023-04-04T15:24:03.457Z,17.33
2023-04-04T15:26:34.002Z,16.42
2023-04-04T15:29:02.985Z,16.81
2023-04-04T15:31:32.721Z,17.03
2023-04-04T15:34:01.923Z,16.78
2023-04-04T15:36:31.417Z,17.01
2023-04-04T15:39:01.069Z,16.52
2023-04-04T15:41:30.296Z,16.26
2023-04-04T15:44:00.714Z,16.40
2023-04-04T15:46:29.794Z,16.07
2023-04-04T15:48:58.888Z,16.60
2023-04-04T15:51:28.944Z,17.23
2023-04-04T15:53:58.319Z,17.82
2023-04-04T15:56:27.701Z,18.23
2023-04-04T15:58:57.043Z,17.60
2023-04-04T16:01:30.473Z,17.70
2023-04-04T16:03:59.689Z,18.69
2023-04-04T16:06:30.132Z,20.81
2023-04-04T16:08:59.471Z,21.31
2023-04-04T16:11:28.589Z,21.48
2023-04-04T16:13:57.608Z,22.12
2023-04-04T16:16:26.794Z,21.31
2023-04-04T16:18:57.453Z,20.62
2023-04-04T16:21:26.561Z,21.03
2023-04-04T16:23:55.998Z,22.25
2023-04-04T16:26:25.093Z,21.77
2023-04-04T16:28:54.516Z,22.71
2023-04-04T16:31:24.901Z,21.59
2023-04-04T16:33:54.044Z,21.79
2023-04-04T16:36:24.488Z,20.60
2023-04-04T16:38:54.858Z,20.18
2023-04-04T16:41:23.943Z,20.01
2023-04-04T16:43:54.749Z,19.00
2023-04-04T16:46:23.831Z,19.24
2023-04-04T16:48:52.901Z,19.45
2023-04-04T16:51:22.037Z,19.25
2023-04-04T16:53:52.491Z,19.17
2023-04-04T16:56:22.434Z,20.33
2023-04-04T16:58:55.598Z,22.18
2023-04-04T17:01:26.755Z,25.30
2023-04-04T17:03:55.960Z,26.79
2023-04-04T17:06:27.403Z,28.22
2023-04-04T17:08:57.949Z,30.48
2023-04-04T17:11:27.210Z,31.28
2023-04-04T17:13:56.208Z,31.02
2023-04-04T17:16:26.429Z,32.40
2023-04-04T17:18:55.518Z,34.03
2023-04-04T17:21:25.106Z,33.37
2023-04-04T17:23:54.202Z,34.17
2023-04-04T17:26:24.601Z,35.42
2023-04-04T17:28:53.676Z,35.23
2023-04-04T17:31:23.014Z,34.64
2023-04-04T17:33:52.200Z,35.84
2023-04-04T17:36:21.599Z,36.36
2023-04-04T17:38:50.857Z,36.26
2023-04-04T17:41:19.938Z,37.05
2023-04-04T17:43:51.627Z,38.31
2023-04-04T17:46:20.781Z,38.32
2023-04-04T17:48:49.797Z,39.03
2023-04-04T17:51:19.620Z,38.43
2023-04-04T17:53:48.985Z,39.59
2023-04-04T17:56:18.014Z,39.39
2023-04-04T17:58:47.183Z,40.94
2023-04-04T18:01:17.854Z,40.18
2023-04-04T18:03:47.767Z,40.24
2023-04-04T18:06:17.161Z,41.55
2023-04-04T18:08:46.150Z,41.45
2023-04-04T18:11:15.313Z,41.87
2023-04-04T18:13:45.359Z,41.48
2023-04-04T18:16:14.542Z,42.54
2023-04-04T18:18:46.108Z,42.10
2023-04-04T18:21:15.186Z,41.66
2023-04-04T18:23:44.881Z,41.56
2023-04-04T18:26:15.045Z,42.68
2023-04-04T18:28:44.247Z,43.89
2023-04-04T18:31:14.543Z,43.81
2023-04-04T18:33:45.138Z,44.33
2023-04-04T18:36:14.254Z,44.05
2023-04-04T18:38:43.659Z,44.10
2023-04-04T18:41:12.710Z,43.76
2023-04-04T18:43:41.908Z,44.62
2023-04-04T18:46:11.099Z,45.07
2023-04-04T18:48:40.086Z,44.75
2023-04-04T18:51:11.747Z,44.81
2023-04-04T18:53:42.365Z,43.77
2023-04-04T18:56:11.830Z,44.69
2023-04-04T18:58:41.920Z,44.69
2023-04-04T19:01:13.014Z,45.74
2023-04-04T19:03:47.513Z,45.42
2023-04-04T19:06:20.372Z,45.48
2023-04-04T19:08:53.556Z,45.77
2023-04-04T19:11:24.038Z,46.25
2023-04-04T19:13:53.656Z,45.73
2023-04-04T19:16:24.302Z,45.12
2023-04-04T19:18:54.712Z,45.77
2023-04-04T19:21:26.440Z,46.39
2023-04-04T19:23:55.982Z,47.29
2023-04-04T19:26:25.100Z,47.17
2023-04-04T19:28:54.584Z,47.22
2023-04-04T19:31:30.065Z,47.17
2023-04-04T19:33:59.660Z,46.81
2023-04-04T19:36:32.010Z,46.63
2023-04-04T19:39:01.031Z,46.79
2023-04-04T19:41:36.579Z,47.37
2023-04-04T19:44:08.841Z,47.04
2023-04-04T19:46:38.000Z,47.54
2023-04-04T19:49:12.058Z,46.37
2023-04-04T19:51:52.542Z,47.64
2023-04-04T19:54:27.607Z,47.05
2023-04-04T19:57:01.801Z,46.52
2023-04-04T20:00:13.497Z,46.65
2023-04-04T20:02:54.704Z,47.50
2023-04-04T20:05:59.001Z,47.09
2023-04-04T20:08:41.041Z,47.92
2023-04-04T20:11:10.129Z,47.97
2023-04-04T20:13:40.137Z,46.94
2023-04-04T20:16:14.795Z,46.53
2023-04-04T20:18:45.671Z,46.96
2023-04-04T20:21:17.363Z,46.25
2023-04-04T20:23:52.623Z,47.56
2023-04-04T20:26:42.649Z,46.84
2023-04-04T20:29:13.967Z,46.81
2023-04-04T20:31:46.228Z,46.61
2023-04-04T20:34:42.132Z,46.71
2023-04-04T20:37:19.961Z,45.94
2023-04-04T20:39:54.710Z,46.67
2023-04-04T20:42:41.788Z,47.48
2023-04-04T20:45:44.943Z,47.30
2023-04-04T20:48:40.958Z,46.82
2023-04-04T20:51:27.204Z,47.04
2023-04-04T20:53:59.181Z,47.89
2023-04-04T20:56:52.500Z,47.49
2023-04-04T20:59:36.886Z,48.14
2023-04-04T21:02:12.556Z,48.75
2023-04-04T21:04:42.475Z,48.34
2023-04-04T21:07:42.615Z,47.85
2023-04-04T21:10:26.531Z,48.84
2023-04-04T21:12:58.993Z,48.62
2023-04-04T21:15:30.336Z,48.93
2023-04-04T21:18:08.999Z,49.11
2023-04-04T21:21:12.114Z,49.94
2023-04-04T21:23:47.255Z,50.81
2023-04-04T21:26:34.152Z,51.94
2023-04-04T21:29:07.240Z,52.72
2023-04-04T21:31:39.075Z,53.35
2023-04-04T21:34:14.761Z,53.84
2023-04-04T21:36:44.521Z,53.29
2023-04-04T21:39:15.948Z,54.11
2023-04-04T21:41:46.033Z,54.44
2023-04-04T21:44:16.503Z,54.44
2023-04-04T21:46:45.749Z,54.80
2023-04-04T21:49:14.882Z,54.96
2023-04-04T21:51:44.165Z,56.32
2023-04-04T21:54:14.386Z,56.25
2023-04-04T21:56:43.506Z,56.14
2023-04-04T21:59:12.785Z,56.51
2023-04-04T22:01:43.381Z,57.08
2023-04-04T22:04:12.608Z,58.66
2023-04-04T22:06:42.769Z,58.13
2023-04-04T22:09:11.882Z,58.13
2023-04-04T22:11:45.510Z,58.44
2023-04-04T22:14:17.449Z,59.05
2023-04-04T22:16:48.481Z,60.41
2023-04-04T22:19:17.854Z,60.08
2023-04-04T22:21:48.686Z,60.63
2023-04-04T22:24:19.212Z,59.88
2023-04-04T22:26:50.622Z,60.84
2023-04-04T22:29:22.912Z,59.86
2023-04-04T22:31:53.344Z,60.03
2023-04-04T22:34:22.596Z,61.10
2023-04-04T22:36:54.849Z,60.19
2023-04-04T22:39:24.125Z,61.95
2023-04-04T22:41:53.156Z,61.35
2023-04-04T22:44:22.401Z,61.38
2023-04-04T22:46:52.906Z,61.91
2023-04-04T22:49:22.339Z,62.63
2023-04-04T22:51:55.531Z,63.19
2023-04-04T22:54:24.814Z,62.65
2023-04-04T22:56:54.138Z,64.10
2023-04-04T22:59:23.181Z,64.57
2023-04-04T23:01:53.808Z,64.83
2023-04-04T23:04:22.958Z,64.63
2023-04-04T23:06:52.111Z,64.71
2023-04-04T23:09:21.506Z,64.78
2023-04-04T23:11:50.494Z,66.05
2023-04-04T23:14:19.664Z,65.15
2023-04-04T23:16:49.110Z,65.58
2023-04-04T23:19:19.949Z,66.42
2023-04-04T23:21:49.045Z,66.56
2023-04-04T23:24:18.254Z,67.03
2023-04-04T23:26:47.311Z,66.40
2023-04-04T23:29:16.423Z,66.65
2023-04-04T23:31:45.575Z,67.56
2023-04-04T23:34:14.644Z,67.01
2023-04-04T23:36:45.085Z,67.84
2023-04-04T23:39:14.878Z,68.37
2023-04-04T23:41:43.945Z,69.81
2023-04-04T23:44:13.211Z,69.09
2023-04-04T23:46:42.571Z,68.80
2023-04-04T23:49:12.736Z,69.46
2023-04-04T23:51:42.360Z,69.30
2023-04-04T23:54:14.278Z,69.77
2023-04-04T23:56:43.308Z,70.06
2023-04-04T23:59:12.378Z,71.58
